Terminal Aerodrome Forecast
Issued by NWS North Platte, NE

Home | Current Version | Previous Version | Text Only | Print | Product List | Glossary On
Versions: 1 2 3 4 5 6 7 8 9 10 11 12 13 14 15 16 17 18 19 20 21 22 23 24 25 26 27 28 29 30 31 32 33 34 35 36 37 38 39 40
000
FTUS43 KLBF 221803 AAA
TAFVTN
TAF AMD
KVTN 221803Z 2218/2318 30015G23KT P6SM FEW100 SCT200
     FM230000 29009KT P6SM FEW090 SCT200
     FM230900 28009KT P6SM BKN090 WS020/30040KT
     FM231200 29011G20KT P6SM SCT090 WS020/31045KT
     FM231400 30015G28KT P6SM SCT080
     FM231700 32019G32KT P6SM BKN050=

USA.gov is the U.S. government's official web portal to all federal, state and local government web resources and services.